createdAt,value
2018-10-16T00:01:34.991Z,50.37
2018-10-16T00:04:03.725Z,50.07
2018-10-16T00:06:32.447Z,51.07
2018-10-16T00:09:01.148Z,50.27
2018-10-16T00:11:29.864Z,50.43
2018-10-16T00:13:58.575Z,50.37
2018-10-16T00:16:27.304Z,50.10
2018-10-16T00:18:56.003Z,50.30
2018-10-16T00:21:24.744Z,50.83
2018-10-16T00:23:53.452Z,50.80
2018-10-16T00:26:22.168Z,50.07
2018-10-16T00:28:50.880Z,50.27
2018-10-16T00:31:19.584Z,49.93
2018-10-16T00:33:48.294Z,50.70
2018-10-16T00:36:17.016Z,50.60
2018-10-16T00:38:45.737Z,50.60
2018-10-16T00:41:14.453Z,50.83
2018-10-16T00:43:43.155Z,50.50
2018-10-16T00:46:11.872Z,50.17
2018-10-16T00:48:40.579Z,50.70
2018-10-16T00:51:09.294Z,50.40
2018-10-16T00:53:38.006Z,50.80
2018-10-16T00:56:06.813Z,50.43
2018-10-16T00:58:35.564Z,50.70
2018-10-16T01:01:04.289Z,50.47
2018-10-16T01:03:33.013Z,50.43
2018-10-16T01:06:01.727Z,50.50
2018-10-16T01:08:30.430Z,50.10
2018-10-16T01:10:59.145Z,50.37
2018-10-16T01:13:27.855Z,51.07
2018-10-16T01:15:56.575Z,50.67
2018-10-16T01:18:25.295Z,49.83
2018-10-16T01:20:54.027Z,50.93
2018-10-16T01:23:22.732Z,50.77
2018-10-16T01:25:51.440Z,50.53
2018-10-16T01:28:20.160Z,50.50
2018-10-16T01:30:48.873Z,50.60
2018-10-16T01:33:17.595Z,51.33
2018-10-16T01:35:46.308Z,50.27
2018-10-16T01:38:15.031Z,50.27
2018-10-16T01:40:43.745Z,50.23
2018-10-16T01:43:12.460Z,50.60
2018-10-16T01:45:41.165Z,50.13
2018-10-16T01:48:09.885Z,50.27
2018-10-16T01:50:38.595Z,51.40
2018-10-16T01:53:07.316Z,50.67
2018-10-16T01:55:36.020Z,49.93
2018-10-16T01:58:04.732Z,50.17
2018-10-16T02:00:34.002Z,51.20
2018-10-16T02:03:02.721Z,51.03
2018-10-16T02:05:31.435Z,51.40
2018-10-16T02:08:00.164Z,50.73
2018-10-16T02:10:28.868Z,50.80
2018-10-16T02:12:57.600Z,50.70
2018-10-16T02:15:26.312Z,49.97
2018-10-16T02:17:55.031Z,50.50
2018-10-16T02:20:23.731Z,50.77
2018-10-16T02:22:52.443Z,50.53
2018-10-16T02:25:21.176Z,50.13
2018-10-16T02:27:49.900Z,49.67
2018-10-16T02:30:18.607Z,49.93
2018-10-16T02:32:47.320Z,49.93
2018-10-16T02:35:16.040Z,50.60
2018-10-16T02:37:44.752Z,49.93
2018-10-16T02:40:13.473Z,50.77
2018-10-16T02:42:42.184Z,49.80
2018-10-16T02:45:11.556Z,50.30
2018-10-16T02:47:40.555Z,50.97
2018-10-16T02:50:10.314Z,50.40
2018-10-16T02:52:39.351Z,50.37
2018-10-16T02:55:09.181Z,50.67
2018-10-16T02:57:38.009Z,50.27
2018-10-16T03:00:06.960Z,50.60
2018-10-16T03:02:35.689Z,50.30
2018-10-16T03:05:04.432Z,50.70
2018-10-16T03:07:33.140Z,50.83
2018-10-16T03:10:01.864Z,50.30
2018-10-16T03:12:30.572Z,50.77
2018-10-16T03:14:59.293Z,50.83
2018-10-16T03:17:28.001Z,50.43
2018-10-16T03:19:56.720Z,50.07
2018-10-16T03:22:25.433Z,50.63
2018-10-16T03:24:54.144Z,50.10
2018-10-16T03:27:22.851Z,50.87
2018-10-16T03:29:51.568Z,50.33
2018-10-16T03:32:20.272Z,50.03
2018-10-16T03:34:48.992Z,50.57
2018-10-16T03:37:17.701Z,50.93
2018-10-16T03:39:46.416Z,50.53
2018-10-16T03:42:15.133Z,50.60
2018-10-16T03:44:43.839Z,50.93
2018-10-16T03:47:12.560Z,50.77
2018-10-16T03:49:41.355Z,49.87
2018-10-16T03:52:10.085Z,50.63
2018-10-16T03:54:38.796Z,50.37
2018-10-16T03:57:07.580Z,50.17
2018-10-16T03:59:36.229Z,50.37
2018-10-16T04:02:05.191Z,50.50
2018-10-16T04:04:33.892Z,50.23
2018-10-16T04:07:02.604Z,49.83
2018-10-16T04:09:31.320Z,50.13
2018-10-16T04:12:00.037Z,49.80
2018-10-16T04:14:28.745Z,50.50
2018-10-16T04:16:57.456Z,50.20
2018-10-16T04:19:26.164Z,50.57
2018-10-16T04:21:54.883Z,49.90
2018-10-16T04:24:25.322Z,50.67
2018-10-16T04:26:56.301Z,50.43
2018-10-16T04:29:25.012Z,49.83
2018-10-16T04:31:53.743Z,50.90
2018-10-16T04:34:22.453Z,49.90
2018-10-16T04:36:51.168Z,50.23
2018-10-16T04:39:19.917Z,50.00
2018-10-16T04:41:48.625Z,49.97
2018-10-16T04:44:17.342Z,50.13
2018-10-16T04:46:46.048Z,50.00
2018-10-16T04:49:14.764Z,49.93
2018-10-16T04:51:43.474Z,50.33
2018-10-16T04:54:12.188Z,50.57
2018-10-16T04:56:41.533Z,50.00
2018-10-16T04:59:10.246Z,50.13
2018-10-16T05:01:38.955Z,50.30
2018-10-16T05:04:08.056Z,50.20
2018-10-16T05:06:37.112Z,50.13
2018-10-16T05:09:06.648Z,49.97
2018-10-16T05:11:39.708Z,49.50
2018-10-16T05:14:08.468Z,50.23
2018-10-16T05:16:37.176Z,49.80
2018-10-16T05:19:06.049Z,49.90
2018-10-16T05:21:34.625Z,50.53
2018-10-16T05:24:03.344Z,50.30
2018-10-16T05:26:32.059Z,49.83
2018-10-16T05:29:00.776Z,50.20
2018-10-16T05:31:29.636Z,49.70
2018-10-16T05:33:58.196Z,49.73
2018-10-16T05:36:26.920Z,50.13
2018-10-16T05:38:55.652Z,50.33
2018-10-16T05:41:24.364Z,50.10
2018-10-16T05:43:53.082Z,50.47
2018-10-16T05:46:21.795Z,50.17
2018-10-16T05:48:50.523Z,50.13
2018-10-16T05:51:19.488Z,50.10
2018-10-16T05:53:48.199Z,50.00
2018-10-16T05:56:16.920Z,50.07
2018-10-16T05:58:45.640Z,49.87
2018-10-16T06:01:14.357Z,52.03
2018-10-16T06:03:43.055Z,55.77
2018-10-16T06:06:11.792Z,51.93
2018-10-16T06:08:40.499Z,51.17
2018-10-16T06:11:09.219Z,52.13
2018-10-16T06:13:37.932Z,50.50
2018-10-16T06:16:06.754Z,51.07
2018-10-16T06:18:35.348Z,50.83
2018-10-16T06:21:04.060Z,50.93
2018-10-16T06:23:33.248Z,50.00
2018-10-16T06:26:01.969Z,50.47
2018-10-16T06:28:30.686Z,50.77
2018-10-16T06:30:59.392Z,51.03
2018-10-16T06:33:30.556Z,49.43
2018-10-16T06:35:59.268Z,50.30
2018-10-16T06:38:27.967Z,49.30
2018-10-16T06:40:56.778Z,49.40
2018-10-16T06:43:25.403Z,49.80
2018-10-16T06:45:54.167Z,49.47
2018-10-16T06:48:23.095Z,48.93
2018-10-16T06:50:51.611Z,50.23
2018-10-16T06:53:20.414Z,49.90
2018-10-16T06:55:49.036Z,49.37
2018-10-16T06:58:17.754Z,50.20
2018-10-16T07:00:46.463Z,50.93
2018-10-16T07:03:15.226Z,50.13
2018-10-16T07:05:43.992Z,50.43
2018-10-16T07:08:12.711Z,50.80
2018-10-16T07:10:41.468Z,50.37
2018-10-16T07:13:10.197Z,51.20
2018-10-16T07:15:38.911Z,50.43
2018-10-16T07:18:07.636Z,50.27
2018-10-16T07:20:36.359Z,51.33
2018-10-16T07:23:05.101Z,51.70
2018-10-16T07:25:33.838Z,50.03
2018-10-16T07:28:03.104Z,50.77
2018-10-16T07:30:31.824Z,51.57
2018-10-16T07:33:00.549Z,50.83
2018-10-16T07:35:29.260Z,51.63
2018-10-16T07:37:58.083Z,51.07
2018-10-16T07:40:26.712Z,50.90
2018-10-16T07:42:55.465Z,50.37
2018-10-16T07:45:24.194Z,61.93
2018-10-16T07:47:52.951Z,60.37
2018-10-16T07:50:21.668Z,60.93
2018-10-16T07:52:50.380Z,56.50
2018-10-16T07:55:19.096Z,51.50
2018-10-16T07:57:48.305Z,52.00
2018-10-16T08:00:17.017Z,51.00
2018-10-16T08:02:45.724Z,53.63
2018-10-16T08:05:14.435Z,54.77
2018-10-16T08:07:43.168Z,53.70
2018-10-16T08:10:13.225Z,52.73
2018-10-16T08:12:42.419Z,55.90
2018-10-16T08:15:11.516Z,53.93
2018-10-16T08:17:40.803Z,55.53
2018-10-16T08:20:09.530Z,53.93
2018-10-16T08:22:38.591Z,54.17
2018-10-16T08:25:07.494Z,54.20
2018-10-16T08:27:36.379Z,53.57
2018-10-16T08:30:06.436Z,53.03
2018-10-16T08:32:35.071Z,54.77
2018-10-16T08:35:03.935Z,54.03
2018-10-16T08:37:56.756Z,54.30
2018-10-16T08:40:25.468Z,54.13
2018-10-16T08:45:10.713Z,54.50
2018-10-16T08:47:50.744Z,54.27
2018-10-16T08:50:31.521Z,56.97
2018-10-16T08:53:00.247Z,54.93
2018-10-16T08:55:28.976Z,56.47
2018-10-16T08:57:57.740Z,56.73
2018-10-16T09:00:26.460Z,54.70
2018-10-16T09:02:55.200Z,55.63
2018-10-16T09:05:24.040Z,54.30
2018-10-16T09:07:52.760Z,55.30
2018-10-16T09:10:21.487Z,56.93
2018-10-16T09:12:50.719Z,55.13
2018-10-16T09:15:21.119Z,55.43
2018-10-16T09:17:50.341Z,55.53
2018-10-16T09:20:20.214Z,55.63
2018-10-16T09:22:49.888Z,55.53
2018-10-16T09:25:19.543Z,55.03
2018-10-16T09:27:49.309Z,56.77
2018-10-16T09:30:18.042Z,56.20
2018-10-16T09:32:46.754Z,55.77
2018-10-16T09:35:15.456Z,58.27
2018-10-16T09:37:48.172Z,55.97
2018-10-16T09:40:17.339Z,55.60
2018-10-16T09:42:57.045Z,56.50
2018-10-16T09:45:27.921Z,56.00
2018-10-16T09:47:56.615Z,55.13
2018-10-16T09:50:25.361Z,56.23
2018-10-16T09:52:54.073Z,56.53
2018-10-16T09:55:22.784Z,54.47
2018-10-16T09:57:51.526Z,56.43
2018-10-16T10:00:25.745Z,55.07
2018-10-16T10:02:54.484Z,54.63
2018-10-16T10:05:23.196Z,55.73
2018-10-16T10:07:51.948Z,57.97
2018-10-16T10:10:20.661Z,58.13
2018-10-16T10:12:49.379Z,55.00
2018-10-16T10:15:18.088Z,56.80
2018-10-16T10:17:46.816Z,56.00
2018-10-16T10:20:15.529Z,56.43
2018-10-16T10:22:44.234Z,56.10
2018-10-16T10:25:13.474Z,58.00
2018-10-16T10:27:42.165Z,55.77
2018-10-16T10:30:11.440Z,58.13
2018-10-16T10:32:40.278Z,58.00
2018-10-16T10:35:11.736Z,55.90
2018-10-16T10:37:40.985Z,56.40
2018-10-16T10:40:10.789Z,56.03
2018-10-16T10:42:40.605Z,56.97
2018-10-16T10:45:10.638Z,58.70
2018-10-16T10:47:39.705Z,58.97
2018-10-16T10:50:10.506Z,58.20
2018-10-16T10:52:39.174Z,57.90
2018-10-16T10:55:08.644Z,60.13
2018-10-16T10:57:37.630Z,59.37
2018-10-16T11:00:08.680Z,56.33
2018-10-16T11:02:37.975Z,56.53
2018-10-16T11:05:07.284Z,56.30
2018-10-16T11:07:37.088Z,58.40
2018-10-16T11:13:19.881Z,56.00
2018-10-16T11:15:49.583Z,55.60
2018-10-16T11:18:18.640Z,56.37
2018-10-16T11:20:47.677Z,56.30
2018-10-16T11:23:17.398Z,57.13
2018-10-16T11:25:46.959Z,55.57
2018-10-16T11:28:16.760Z,57.03
2018-10-16T11:30:46.721Z,56.93
2018-10-16T11:33:16.782Z,55.53
2018-10-16T11:35:46.466Z,54.90
2018-10-16T11:38:15.164Z,55.93
2018-10-16T11:40:43.883Z,55.77
2018-10-16T11:43:12.583Z,56.60
2018-10-16T11:45:41.308Z,56.37
2018-10-16T11:48:10.020Z,57.03
2018-10-16T11:50:38.735Z,56.30
2018-10-16T11:53:07.449Z,56.23
2018-10-16T11:55:36.152Z,54.93
2018-10-16T11:58:04.983Z,55.60
2018-10-16T12:00:33.708Z,55.70
2018-10-16T12:03:02.411Z,55.57
2018-10-16T12:05:31.140Z,56.77
2018-10-16T12:07:59.943Z,54.43
2018-10-16T12:10:28.609Z,56.30
2018-10-16T12:12:57.348Z,55.53
2018-10-16T12:15:26.012Z,56.03
2018-10-16T12:18:02.184Z,56.07
2018-10-16T12:20:38.004Z,56.27
2018-10-16T12:23:06.711Z,55.10
2018-10-16T12:25:35.430Z,54.67
2018-10-16T12:28:04.148Z,55.17
2018-10-16T12:30:32.855Z,54.63
2018-10-16T12:33:01.596Z,54.03
2018-10-16T12:35:30.312Z,54.90
2018-10-16T12:37:59.040Z,54.97
2018-10-16T12:40:27.753Z,55.30
2018-10-16T12:42:56.572Z,53.97
2018-10-16T12:45:25.184Z,55.70
2018-10-16T12:47:53.943Z,54.43
2018-10-16T12:50:22.646Z,55.00
2018-10-16T12:52:51.389Z,54.77
2018-10-16T12:55:20.061Z,54.03
2018-10-16T12:57:48.767Z,54.53
2018-10-16T13:00:17.515Z,54.40
2018-10-16T13:02:46.220Z,54.73
2018-10-16T13:05:15.055Z,54.13
2018-10-16T13:07:43.651Z,53.80
2018-10-16T13:10:13.984Z,53.40
2018-10-16T13:12:43.697Z,54.53
2018-10-16T13:15:13.280Z,53.53
2018-10-16T13:17:41.992Z,53.30
2018-10-16T13:20:12.403Z,53.33
2018-10-16T13:22:41.719Z,53.80
2018-10-16T13:25:11.944Z,53.73
2018-10-16T13:27:40.658Z,53.53
2018-10-16T13:30:12.064Z,53.60
2018-10-16T13:32:40.848Z,53.30
2018-10-16T13:35:11.442Z,54.03
2018-10-16T13:37:40.076Z,53.13
2018-10-16T13:40:09.763Z,53.03
2018-10-16T13:42:47.653Z,53.60
2018-10-16T13:45:17.003Z,53.17
2018-10-16T13:47:45.711Z,53.37
2018-10-16T13:50:15.517Z,52.60
2018-10-16T13:52:44.588Z,53.13
2018-10-16T13:55:14.187Z,53.00
2018-10-16T14:14:32.429Z,53.07
2018-10-16T14:17:53.960Z,54.00
2018-10-16T14:20:22.680Z,54.13
2018-10-16T14:22:59.531Z,53.37
2018-10-16T14:25:28.210Z,53.83
2018-10-16T14:28:08.260Z,53.60
2018-10-16T14:30:37.177Z,53.37
2018-10-16T14:33:05.900Z,53.63
2018-10-16T14:35:35.445Z,54.40
2018-10-16T14:38:05.190Z,54.17
2018-10-16T14:40:35.148Z,54.33
2018-10-16T14:43:06.028Z,53.13
2018-10-16T14:45:35.346Z,53.43
2018-10-16T14:48:05.178Z,53.60
2018-10-16T14:50:34.403Z,53.57
2018-10-16T14:53:03.148Z,53.73
2018-10-16T14:55:31.852Z,54.87
2018-10-16T14:58:00.591Z,53.70
2018-10-16T15:00:29.288Z,54.57
2018-10-16T15:02:58.015Z,53.77
2018-10-16T15:05:26.728Z,54.47
2018-10-16T15:07:55.510Z,53.40
2018-10-16T15:10:24.198Z,53.63
2018-10-16T15:12:52.875Z,53.63
2018-10-16T15:15:21.575Z,54.17
2018-10-16T15:17:50.298Z,54.63
2018-10-16T15:20:19.030Z,53.23
2018-10-16T15:22:47.764Z,53.43
2018-10-16T15:25:16.500Z,53.57
2018-10-16T15:27:45.223Z,53.77
2018-10-16T15:30:13.939Z,53.60
2018-10-16T15:32:42.663Z,53.57
2018-10-16T15:35:11.724Z,53.93
2018-10-16T15:37:40.436Z,53.57
2018-10-16T15:40:10.613Z,53.90
2018-10-16T15:42:39.524Z,53.33
2018-10-16T15:45:09.596Z,53.83
2018-10-16T15:47:38.659Z,53.07
2018-10-16T15:50:08.015Z,52.70
2018-10-16T15:52:36.688Z,53.40
2018-10-16T15:55:06.336Z,53.27
2018-10-16T15:57:35.107Z,53.47
2018-10-16T16:00:03.887Z,53.07
2018-10-16T16:02:51.755Z,53.30
2018-10-16T16:05:21.931Z,52.90
2018-10-16T16:07:51.269Z,53.30
2018-10-16T16:10:20.747Z,52.80
2018-10-16T16:12:53.307Z,52.77
2018-10-16T16:15:27.947Z,52.90
2018-10-16T16:17:57.485Z,52.93
2018-10-16T16:20:27.063Z,53.77
2018-10-16T16:23:01.733Z,52.37
2018-10-16T16:25:31.487Z,55.83
2018-10-16T16:28:00.397Z,67.43
2018-10-16T16:30:29.048Z,57.17
2018-10-16T16:32:57.764Z,61.57
2018-10-16T16:35:26.487Z,59.87
2018-10-16T16:37:55.257Z,58.03
2018-10-16T16:40:23.923Z,58.23
2018-10-16T16:42:52.632Z,55.20
2018-10-16T16:45:21.351Z,55.60
2018-10-16T16:47:50.081Z,54.77
2018-10-16T16:50:18.805Z,54.27
2018-10-16T16:52:47.521Z,55.77
2018-10-16T16:55:16.487Z,54.43
2018-10-16T16:57:45.206Z,54.60
2018-10-16T17:00:14.776Z,54.30
2018-10-16T17:02:44.638Z,54.27
2018-10-16T17:05:13.864Z,54.73
2018-10-16T17:07:43.293Z,54.57
2018-10-16T17:10:12.113Z,55.03
2018-10-16T17:12:41.287Z,55.60
2018-10-16T17:15:12.631Z,54.70
2018-10-16T17:17:41.546Z,55.23
2018-10-16T17:20:11.286Z,54.70
2018-10-16T17:22:39.948Z,55.17
2018-10-16T17:25:10.439Z,55.07
2018-10-16T17:27:39.000Z,54.93
2018-10-16T17:30:10.845Z,55.33
2018-10-16T17:32:39.789Z,54.57
2018-10-16T17:35:09.483Z,55.53
2018-10-16T17:37:38.480Z,54.77
2018-10-16T17:40:08.514Z,54.47
2018-10-16T17:42:37.417Z,54.80
2018-10-16T17:45:07.250Z,54.53
2018-10-16T17:47:36.321Z,54.10
2018-10-16T17:50:07.485Z,54.83
2018-10-16T17:52:36.440Z,54.40
2018-10-16T17:55:05.696Z,54.13
2018-10-16T17:57:34.493Z,54.50
2018-10-16T18:00:03.135Z,54.47
2018-10-16T18:02:31.911Z,55.03
2018-10-16T18:05:00.590Z,54.27
2018-10-16T18:07:29.308Z,53.77
2018-10-16T18:09:58.020Z,53.90
2018-10-16T18:12:26.732Z,53.67
2018-10-16T18:14:55.456Z,54.57
2018-10-16T18:17:24.327Z,53.40
2018-10-16T18:19:53.040Z,54.53
2018-10-16T18:22:23.856Z,54.80
2018-10-16T18:24:52.597Z,53.93
2018-10-16T18:27:21.312Z,54.27
2018-10-16T18:29:50.050Z,53.47
2018-10-16T18:32:18.767Z,53.13
2018-10-16T18:34:47.488Z,53.70
2018-10-16T18:37:16.221Z,53.73
2018-10-16T18:39:45.128Z,54.20
2018-10-16T18:42:13.667Z,54.20
2018-10-16T18:44:42.376Z,54.60
2018-10-16T18:47:11.099Z,53.57
2018-10-16T18:49:39.813Z,54.23
2018-10-16T18:52:08.532Z,53.80
2018-10-16T18:54:37.476Z,53.87
2018-10-16T18:57:06.634Z,54.03
2018-10-16T18:59:35.297Z,53.57
2018-10-16T19:02:04.275Z,54.07
2018-10-16T19:04:33.108Z,54.17
2018-10-16T19:07:02.040Z,54.37
2018-10-16T19:09:30.772Z,53.73
2018-10-16T19:11:59.500Z,53.43
2018-10-16T19:14:28.252Z,53.80
2018-10-16T19:16:56.998Z,53.23
2018-10-16T19:19:25.720Z,53.50
2018-10-16T19:21:54.464Z,54.27
2018-10-16T19:24:23.195Z,53.60
2018-10-16T19:26:51.953Z,53.30
2018-10-16T19:29:20.632Z,53.10
2018-10-16T19:31:49.374Z,53.77
2018-10-16T19:34:18.708Z,53.27
2018-10-16T19:36:47.425Z,53.33
2018-10-16T19:39:16.180Z,53.13
2018-10-16T19:41:44.867Z,52.50
2018-10-16T19:44:13.581Z,53.10
2018-10-16T19:46:42.300Z,52.70
2018-10-16T19:49:11.023Z,52.93
2018-10-16T19:51:47.993Z,53.93
2018-10-16T19:54:17.402Z,53.13
2018-10-16T19:56:46.116Z,53.53
2018-10-16T19:59:15.292Z,54.03
2018-10-16T20:01:44.716Z,53.33
2018-10-16T20:04:13.411Z,53.00
2018-10-16T20:06:42.134Z,52.63
2018-10-16T20:09:11.874Z,54.33
2018-10-16T20:11:40.529Z,54.10
2018-10-16T20:14:09.297Z,53.63
2018-10-16T20:16:38.008Z,53.37
2018-10-16T20:19:07.047Z,53.33
2018-10-16T20:21:35.756Z,54.27
2018-10-16T20:24:04.892Z,53.30
2018-10-16T20:26:33.610Z,53.23
2018-10-16T20:29:02.412Z,54.00
2018-10-16T20:31:31.136Z,54.03
2018-10-16T20:33:59.871Z,53.87
2018-10-16T20:36:28.655Z,53.37
2018-10-16T20:38:57.553Z,53.50
2018-10-16T20:41:26.283Z,54.83
2018-10-16T20:43:54.995Z,54.23
2018-10-16T20:46:23.708Z,53.33
2018-10-16T20:48:52.467Z,52.83
2018-10-16T20:54:44.344Z,53.67
2018-10-16T20:57:13.059Z,53.63
2018-10-16T20:59:42.676Z,53.23
2018-10-16T21:02:11.452Z,53.47
2018-10-16T21:04:40.220Z,53.63
2018-10-16T21:07:08.903Z,53.73
2018-10-16T21:09:37.604Z,53.83
2018-10-16T21:12:06.507Z,53.30
2018-10-16T21:14:35.233Z,53.63
2018-10-16T21:17:03.980Z,53.77
2018-10-16T21:19:32.727Z,53.37
2018-10-16T21:22:01.399Z,53.07
2018-10-16T21:24:30.112Z,53.50
2018-10-16T21:27:07.219Z,53.20
2018-10-16T21:29:36.215Z,53.30
2018-10-16T21:32:05.524Z,53.47
2018-10-16T21:34:34.240Z,53.43
2018-10-16T21:37:03.004Z,53.47
2018-10-16T21:39:31.696Z,53.37
2018-10-16T21:42:00.404Z,53.03
2018-10-16T21:44:29.119Z,53.30
2018-10-16T21:46:57.832Z,52.90
2018-10-16T21:49:26.548Z,52.60
2018-10-16T21:51:55.255Z,53.17
2018-10-16T21:54:23.983Z,53.07
2018-10-16T21:56:52.698Z,52.77
2018-10-16T21:59:21.442Z,53.20
2018-10-16T22:01:55.439Z,53.10
2018-10-16T22:04:24.251Z,53.00
2018-10-16T22:06:53.061Z,52.57
2018-10-16T22:09:21.748Z,52.73
2018-10-16T22:11:50.461Z,52.83
2018-10-16T22:14:19.179Z,52.93
2018-10-16T22:16:47.884Z,52.73
2018-10-16T22:19:16.666Z,52.33
2018-10-16T22:21:45.291Z,52.37
2018-10-16T22:24:14.024Z,52.97
2018-10-16T22:26:42.735Z,52.47
2018-10-16T22:29:11.519Z,53.10
2018-10-16T22:31:40.151Z,52.50
2018-10-16T22:34:08.859Z,52.40
2018-10-16T22:36:37.580Z,52.53
2018-10-16T22:39:08.296Z,52.90
2018-10-16T22:41:37.239Z,51.70
2018-10-16T22:44:06.791Z,52.97
2018-10-16T22:46:35.941Z,52.60
2018-10-16T22:49:05.136Z,51.93
2018-10-16T22:51:34.028Z,51.90
2018-10-16T22:54:02.811Z,53.37
2018-10-16T22:56:31.535Z,53.10
2018-10-16T22:59:00.248Z,52.50
2018-10-16T23:01:28.969Z,52.73
2018-10-16T23:03:57.709Z,52.90
2018-10-16T23:06:26.427Z,52.90
2018-10-16T23:08:55.339Z,52.37
2018-10-16T23:11:24.108Z,52.27
2018-10-16T23:13:52.811Z,52.30
2018-10-16T23:16:21.519Z,52.40
2018-10-16T23:18:50.227Z,52.73
2018-10-16T23:21:18.944Z,52.53
2018-10-16T23:23:47.656Z,52.60
2018-10-16T23:26:16.367Z,52.13
2018-10-16T23:28:45.080Z,52.70
2018-10-16T23:31:13.820Z,52.40
2018-10-16T23:33:42.509Z,53.03
2018-10-16T23:36:11.215Z,51.73
2018-10-16T23:38:39.946Z,52.70
2018-10-16T23:41:08.728Z,52.27
2018-10-16T23:43:37.426Z,52.77
2018-10-16T23:46:06.564Z,52.43
2018-10-16T23:48:35.552Z,52.67
2018-10-16T23:51:04.509Z,53.10
2018-10-16T23:53:33.236Z,52.30
2018-10-16T23:56:01.944Z,52.83
2018-10-16T23:58:30.660Z,52.30
